sensor_id;sensor_type;location;lat;lon;timestamp;P1;durP1;ratioP1;P2;durP2;ratioP2
37485;SDS011;23341;50.296;18.960;2023-03-12T00:04:01;212.23;;;76.10;;
37485;SDS011;23341;50.296;18.960;2023-03-12T00:09:09;99.53;;;39.28;;
37485;SDS011;23341;50.296;18.960;2023-03-12T00:14:14;46.22;;;19.20;;
37485;SDS011;23341;50.296;18.960;2023-03-12T00:19:18;144.38;;;57.03;;
37485;SDS011;23341;50.296;18.960;2023-03-12T00:24:23;26.85;;;16.70;;
37485;SDS011;23341;50.296;18.960;2023-03-12T00:29:29;51.63;;;25.65;;
37485;SDS011;23341;50.296;18.960;2023-03-12T00:34:33;25.23;;;11.30;;
37485;SDS011;23341;50.296;18.960;2023-03-12T00:39:38;29.92;;;14.10;;
37485;SDS011;23341;50.296;18.960;2023-03-12T00:44:43;22.73;;;13.88;;
37485;SDS011;23341;50.296;18.960;2023-03-12T00:49:48;22.58;;;10.80;;
37485;SDS011;23341;50.296;18.960;2023-03-12T00:54:52;18.13;;;10.13;;
37485;SDS011;23341;50.296;18.960;2023-03-12T01:00:01;18.30;;;11.15;;
37485;SDS011;23341;50.296;18.960;2023-03-12T01:05:10;15.30;;;9.38;;
37485;SDS011;23341;50.296;18.960;2023-03-12T01:10:16;20.42;;;11.75;;
37485;SDS011;23341;50.296;18.960;2023-03-12T01:15:22;21.98;;;12.02;;
37485;SDS011;23341;50.296;18.960;2023-03-12T01:20:27;20.27;;;11.70;;
37485;SDS011;23341;50.296;18.960;2023-03-12T01:25:31;19.75;;;11.77;;
37485;SDS011;23341;50.296;18.960;2023-03-12T01:30:37;22.88;;;12.60;;
37485;SDS011;23341;50.296;18.960;2023-03-12T01:35:41;21.65;;;12.25;;
37485;SDS011;23341;50.296;18.960;2023-03-12T01:40:46;17.23;;;11.73;;
37485;SDS011;23341;50.296;18.960;2023-03-12T01:46:03;23.83;;;13.27;;
37485;SDS011;23341;50.296;18.960;2023-03-12T01:51:26;19.92;;;11.55;;
37485;SDS011;23341;50.296;18.960;2023-03-12T01:56:33;19.42;;;11.00;;
37485;SDS011;23341;50.296;18.960;2023-03-12T02:01:40;20.25;;;12.55;;
37485;SDS011;23341;50.296;18.960;2023-03-12T02:06:47;22.08;;;13.38;;
37485;SDS011;23341;50.296;18.960;2023-03-12T02:11:56;21.50;;;13.05;;
37485;SDS011;23341;50.296;18.960;2023-03-12T02:17:02;21.13;;;11.13;;
37485;SDS011;23341;50.296;18.960;2023-03-12T02:22:07;20.55;;;11.75;;
37485;SDS011;23341;50.296;18.960;2023-03-12T02:27:14;17.55;;;11.70;;
37485;SDS011;23341;50.296;18.960;2023-03-12T02:32:22;19.60;;;11.23;;
37485;SDS011;23341;50.296;18.960;2023-03-12T02:37:29;21.85;;;12.07;;
37485;SDS011;23341;50.296;18.960;2023-03-12T02:42:35;21.33;;;12.68;;
37485;SDS011;23341;50.296;18.960;2023-03-12T02:47:40;24.33;;;12.23;;
37485;SDS011;23341;50.296;18.960;2023-03-12T02:52:45;22.98;;;12.63;;
37485;SDS011;23341;50.296;18.960;2023-03-12T02:57:51;21.52;;;13.75;;
37485;SDS011;23341;50.296;18.960;2023-03-12T03:02:57;24.17;;;14.38;;
37485;SDS011;23341;50.296;18.960;2023-03-12T03:08:01;21.83;;;12.73;;
37485;SDS011;23341;50.296;18.960;2023-03-12T03:13:07;19.10;;;11.18;;
37485;SDS011;23341;50.296;18.960;2023-03-12T03:18:12;20.80;;;11.13;;
37485;SDS011;23341;50.296;18.960;2023-03-12T03:23:16;23.65;;;11.07;;
37485;SDS011;23341;50.296;18.960;2023-03-12T03:28:23;19.48;;;11.30;;
37485;SDS011;23341;50.296;18.960;2023-03-12T03:33:30;19.88;;;11.75;;
37485;SDS011;23341;50.296;18.960;2023-03-12T03:38:36;21.45;;;12.77;;
37485;SDS011;23341;50.296;18.960;2023-03-12T03:43:43;20.35;;;11.57;;
37485;SDS011;23341;50.296;18.960;2023-03-12T03:48:49;18.67;;;11.98;;
37485;SDS011;23341;50.296;18.960;2023-03-12T03:53:57;14.43;;;9.68;;
37485;SDS011;23341;50.296;18.960;2023-03-12T03:59:04;23.67;;;13.40;;
37485;SDS011;23341;50.296;18.960;2023-03-12T04:04:11;23.00;;;14.13;;
37485;SDS011;23341;50.296;18.960;2023-03-12T04:09:16;20.02;;;14.38;;
37485;SDS011;23341;50.296;18.960;2023-03-12T04:14:22;17.30;;;9.88;;
37485;SDS011;23341;50.296;18.960;2023-03-12T04:19:27;16.15;;;10.30;;
37485;SDS011;23341;50.296;18.960;2023-03-12T04:24:32;16.48;;;10.55;;
37485;SDS011;23341;50.296;18.960;2023-03-12T04:29:38;16.27;;;11.48;;
37485;SDS011;23341;50.296;18.960;2023-03-12T04:34:43;20.63;;;11.43;;
37485;SDS011;23341;50.296;18.960;2023-03-12T04:39:50;18.15;;;10.77;;
37485;SDS011;23341;50.296;18.960;2023-03-12T04:44:56;15.85;;;9.45;;
37485;SDS011;23341;50.296;18.960;2023-03-12T04:50:01;16.40;;;10.18;;
37485;SDS011;23341;50.296;18.960;2023-03-12T04:55:06;14.45;;;8.30;;
37485;SDS011;23341;50.296;18.960;2023-03-12T05:00:13;17.70;;;10.73;;
37485;SDS011;23341;50.296;18.960;2023-03-12T05:10:25;22.02;;;11.52;;
37485;SDS011;23341;50.296;18.960;2023-03-12T05:15:32;23.38;;;12.35;;
37485;SDS011;23341;50.296;18.960;2023-03-12T18:20:57;26.02;;;12.25;;
37485;SDS011;23341;50.296;18.960;2023-03-12T18:26:02;26.23;;;12.68;;
37485;SDS011;23341;50.296;18.960;2023-03-12T18:31:07;36.63;;;15.77;;
37485;SDS011;23341;50.296;18.960;2023-03-12T18:36:13;30.73;;;16.08;;
37485;SDS011;23341;50.296;18.960;2023-03-12T18:41:17;25.13;;;12.27;;
37485;SDS011;23341;50.296;18.960;2023-03-12T18:46:21;27.63;;;12.20;;
37485;SDS011;23341;50.296;18.960;2023-03-12T18:51:28;45.13;;;18.88;;
37485;SDS011;23341;50.296;18.960;2023-03-12T18:56:33;47.95;;;18.42;;
37485;SDS011;23341;50.296;18.960;2023-03-12T19:01:41;34.72;;;14.73;;
37485;SDS011;23341;50.296;18.960;2023-03-12T19:06:47;31.60;;;14.38;;
37485;SDS011;23341;50.296;18.960;2023-03-12T19:11:54;16.48;;;9.75;;
37485;SDS011;23341;50.296;18.960;2023-03-12T19:16:58;59.85;;;19.85;;
37485;SDS011;23341;50.296;18.960;2023-03-12T19:22:04;49.60;;;18.17;;
37485;SDS011;23341;50.296;18.960;2023-03-12T19:27:09;22.83;;;11.27;;
37485;SDS011;23341;50.296;18.960;2023-03-12T19:32:13;36.75;;;13.73;;
37485;SDS011;23341;50.296;18.960;2023-03-12T19:37:20;41.10;;;15.88;;
37485;SDS011;23341;50.296;18.960;2023-03-12T19:42:24;33.20;;;14.40;;
37485;SDS011;23341;50.296;18.960;2023-03-12T19:47:29;37.88;;;15.85;;
37485;SDS011;23341;50.296;18.960;2023-03-12T19:52:35;23.52;;;12.15;;
37485;SDS011;23341;50.296;18.960;2023-03-12T19:57:40;18.58;;;9.90;;
37485;SDS011;23341;50.296;18.960;2023-03-12T20:02:45;50.00;;;19.08;;
37485;SDS011;23341;50.296;18.960;2023-03-12T20:07:50;40.47;;;17.98;;
37485;SDS011;23341;50.296;18.960;2023-03-12T20:12:55;31.15;;;13.60;;
37485;SDS011;23341;50.296;18.960;2023-03-12T20:17:59;23.85;;;12.15;;
37485;SDS011;23341;50.296;18.960;2023-03-12T20:23:05;35.15;;;17.35;;
37485;SDS011;23341;50.296;18.960;2023-03-12T20:28:11;22.92;;;12.65;;
37485;SDS011;23341;50.296;18.960;2023-03-12T20:33:15;27.65;;;13.70;;
37485;SDS011;23341;50.296;18.960;2023-03-12T20:38:21;27.77;;;13.77;;
37485;SDS011;23341;50.296;18.960;2023-03-12T20:43:25;27.02;;;13.65;;
37485;SDS011;23341;50.296;18.960;2023-03-12T20:48:29;40.00;;;16.20;;
37485;SDS011;23341;50.296;18.960;2023-03-12T20:53:35;35.50;;;15.10;;
37485;SDS011;23341;50.296;18.960;2023-03-12T20:58:39;20.88;;;9.05;;
37485;SDS011;23341;50.296;18.960;2023-03-12T21:03:44;18.70;;;9.25;;
37485;SDS011;23341;50.296;18.960;2023-03-12T21:08:50;25.42;;;12.15;;
37485;SDS011;23341;50.296;18.960;2023-03-12T21:13:54;23.10;;;10.73;;
37485;SDS011;23341;50.296;18.960;2023-03-12T21:18:58;26.05;;;11.90;;
37485;SDS011;23341;50.296;18.960;2023-03-12T21:24:05;20.25;;;9.75;;
37485;SDS011;23341;50.296;18.960;2023-03-12T21:29:09;20.45;;;10.20;;
37485;SDS011;23341;50.296;18.960;2023-03-12T21:34:14;21.70;;;10.10;;
37485;SDS011;23341;50.296;18.960;2023-03-12T21:39:19;33.15;;;13.65;;
37485;SDS011;23341;50.296;18.960;2023-03-12T21:44:24;24.33;;;12.10;;
37485;SDS011;23341;50.296;18.960;2023-03-12T21:49:28;21.27;;;9.23;;
37485;SDS011;23341;50.296;18.960;2023-03-12T21:54:34;20.85;;;9.52;;
37485;SDS011;23341;50.296;18.960;2023-03-12T21:59:39;15.45;;;8.90;;
37485;SDS011;23341;50.296;18.960;2023-03-12T22:04:43;20.65;;;9.95;;
37485;SDS011;23341;50.296;18.960;2023-03-12T22:09:49;19.30;;;9.13;;
37485;SDS011;23341;50.296;18.960;2023-03-12T22:14:53;22.17;;;9.20;;
37485;SDS011;23341;50.296;18.960;2023-03-12T22:19:57;21.05;;;10.10;;
37485;SDS011;23341;50.296;18.960;2023-03-12T22:25:04;18.55;;;9.02;;
37485;SDS011;23341;50.296;18.960;2023-03-12T22:30:09;25.70;;;10.98;;
37485;SDS011;23341;50.296;18.960;2023-03-12T22:35:16;25.00;;;10.40;;
37485;SDS011;23341;50.296;18.960;2023-03-12T22:40:28;18.70;;;8.82;;
37485;SDS011;23341;50.296;18.960;2023-03-12T22:45:33;16.85;;;7.75;;
37485;SDS011;23341;50.296;18.960;2023-03-12T22:50:37;23.73;;;9.98;;
37485;SDS011;23341;50.296;18.960;2023-03-12T22:55:43;12.13;;;6.30;;
37485;SDS011;23341;50.296;18.960;2023-03-12T23:00:47;10.23;;;5.82;;
37485;SDS011;23341;50.296;18.960;2023-03-12T23:05:52;11.73;;;5.53;;
37485;SDS011;23341;50.296;18.960;2023-03-12T23:10:59;18.58;;;8.50;;
37485;SDS011;23341;50.296;18.960;2023-03-12T23:16:05;15.50;;;8.07;;
37485;SDS011;23341;50.296;18.960;2023-03-12T23:21:12;15.55;;;6.93;;
37485;SDS011;23341;50.296;18.960;2023-03-12T23:26:20;14.52;;;7.70;;
37485;SDS011;23341;50.296;18.960;2023-03-12T23:31:26;9.07;;;5.65;;
37485;SDS011;23341;50.296;18.960;2023-03-12T23:36:31;22.73;;;10.02;;
37485;SDS011;23341;50.296;18.960;2023-03-12T23:41:37;23.70;;;10.25;;
37485;SDS011;23341;50.296;18.960;2023-03-12T23:46:42;15.30;;;8.52;;
37485;SDS011;23341;50.296;18.960;2023-03-12T23:51:47;20.73;;;9.20;;
37485;SDS011;23341;50.296;18.960;2023-03-12T23:56:52;8.88;;;6.47;;
